Serval — J8B4154 — position and weather

sailwx.info

Track history (hours):
 
Tides and Currents Weather Stations Pressure Air Temp Water Temp Dewpoint Dewpoint Depression Visibility Wind Speed Wind Dir Waves Ship Positions

Serval

Last reported at 2017-Sep-04 07:56 UTC. Time now 2017-Sep-22 17:03 UTC.
Position N 71°06' E 030°15'.
Warning: this ship's position is 18 days out of date.

Length 30 m; draft 5 m.

Type: . MMSI: 377103000.

Date/timePositionNaut miles runAvg speedWind from/ knotsBaromVisibWave heightAir tempDewpointWater temp
2017-Sep-04 07:56N 71°06' E 030°15'4 9.1
2017-Sep-04 07:31N 71°07' E 030°03'5 9.1
2017-Sep-04 07:01N 71°07' E 029°49'5 9.2
2017-Sep-04 06:30N 71°08' E 029°35'5 9.2
2017-Sep-04 05:59N 71°08' E 029°21'4 9.0
2017-Sep-04 05:31N 71°09' E 029°07'5 9.0
2017-Sep-04 05:00N 71°09' E 028°53'5 9.1
2017-Sep-04 04:30N 71°09' E 028°39'4 9.2
2017-Sep-04 04:01N 71°09' E 028°25'5 9.2
2017-Sep-04 03:30N 71°10' E 028°11'5 9.2
2017-Sep-04 03:00N 71°11' E 027°57'5 9.8
2017-Sep-04 02:30N 71°12' E 027°42'510.0
2017-Sep-04 02:01N 71°12' E 027°27'5 9.8
2017-Sep-04 01:30N 71°12' E 027°11'4 9.0
2017-Sep-04 01:00N 71°13' E 026°57'4 8.5
2017-Sep-04 00:30N 71°13' E 026°44'4 8.2
2017-Sep-04 00:00N 71°12' E 026°31'4 8.8
2017-Sep-03 23:30N 71°12' E 026°18'5 9.3
2017-Sep-03 23:00N 71°13' E 026°04'5 9.4
2017-Sep-03 22:30N 71°13' E 025°49'5 8.9
2017-Sep-03 22:00N 71°13' E 025°35'4 8.4
2017-Sep-03 21:30N 71°12' E 025°22'4 8.6
2017-Sep-03 21:00N 71°11' E 025°09'4 8.7
2017-Sep-03 20:30N 71°10' E 024°56'4 8.7
2017-Sep-03 20:00N 71°09' E 024°43'4 8.0
2017-Sep-03 19:30N 71°06' E 024°34'4 8.4
2017-Sep-03 19:00N 71°02' E 024°28'4 8.6
2017-Sep-03 18:30N 70°58' E 024°23'4 8.3
2017-Sep-03 18:00N 70°55' E 024°16'4 8.2
2017-Sep-03 17:30N 70°52' E 024°06'4 8.4
2017-Sep-03 17:00N 70°50' E 023°56'4 8.6
2017-Sep-03 16:31N 70°47' E 023°46'4 8.6
2017-Sep-03 16:01N 70°44' E 023°37'4 7.7
2017-Sep-03 15:30N 70°40' E 023°36'1 2.9
2017-Sep-03 15:00N 70°40' E 023°40'0 0.0
2017-Sep-03 14:01N 70°40' E 023°40'0 0.0
2017-Sep-03 13:30N 70°40' E 023°40'0 0.0
2017-Sep-03 13:00N 70°40' E 023°40'0 0.0
2017-Sep-03 12:31N 70°40' E 023°40'0 0.0
2017-Sep-03 12:00N 70°40' E 023°40'0 0.0
2017-Sep-03 11:30N 70°40' E 023°40'1 1.5
2017-Sep-03 11:00N 70°40' E 023°38'4 7.8
2017-Sep-03 10:30N 70°44' E 023°33'4 8.5
2017-Sep-03 09:59N 70°48' E 023°32'4 8.6
2017-Sep-03 09:30N 70°52' E 023°25'4 8.7
2017-Sep-03 09:01N 70°53' E 023°13'5 9.1
2017-Sep-03 08:30N 70°53' E 022°59'4 8.8
2017-Sep-03 08:00N 70°53' E 022°46'5 9.2
2017-Sep-03 07:30N 70°51' E 022°33'4 9.2
2017-Sep-03 07:01N 70°49' E 022°20'5 9.3
2017-Sep-03 06:31N 70°47' E 022°07'5 9.4
2017-Sep-03 06:00N 70°46' E 021°53'5 9.2
2017-Sep-03 05:30N 70°44' E 021°41'5 9.3
2017-Sep-03 05:00N 70°42' E 021°28'5 9.2
2017-Sep-03 04:30N 70°40' E 021°15'5 9.3
2017-Sep-03 04:01N 70°38' E 021°02'5 9.2
2017-Sep-03 03:31N 70°36' E 020°50'4 8.8
2017-Sep-03 03:00N 70°34' E 020°38'4 8.7
2017-Sep-03 02:30N 70°33' E 020°25'5 9.4
2017-Sep-03 02:00N 70°31' E 020°13'5 9.4
2017-Sep-03 01:30N 70°29' E 019°59'5 9.8
2017-Sep-03 01:00N 70°27' E 019°46'5 9.8
2017-Sep-03 00:30N 70°25' E 019°33'5 9.9
2017-Sep-03 00:00N 70°23' E 019°19'5 9.8
2017-Sep-02 23:31N 70°21' E 019°06'5 9.8
2017-Sep-02 23:00N 70°19' E 018°52'510.0
2017-Sep-02 22:31N 70°17' E 018°39'5 9.9
2017-Sep-02 22:00N 70°14' E 018°27'5 9.8
2017-Sep-02 21:30N 70°11' E 018°17'5 9.7
2017-Sep-02 21:00N 70°08' E 018°06'510.0
2017-Sep-02 20:31N 70°04' E 017°55'510.2
2017-Sep-02 20:00N 70°01' E 017°45'5 9.6
2017-Sep-02 19:30N 69°58' E 017°34'5 9.5
2017-Sep-02 19:00N 69°54' E 017°24'5 9.4
2017-Sep-02 18:31N 69°51' E 017°14'5 9.8
2017-Sep-02 18:00N 69°48' E 017°04'5 9.6
2017-Sep-02 17:31N 69°44' E 016°53'5 9.3
2017-Sep-02 17:00N 69°41' E 016°44'5 9.1
2017-Sep-02 16:30N 69°38' E 016°34'4 9.0
2017-Sep-02 16:00N 69°35' E 016°25'4 8.9
2017-Sep-02 15:30N 69°32' E 016°15'5 9.0
2017-Sep-02 15:00N 69°29' E 016°06'5 9.4
2017-Sep-02 14:30N 69°26' E 015°56'5 9.7
2017-Sep-02 14:00N 69°22' E 015°47'5 9.7
2017-Sep-02 13:30N 69°19' E 015°37'510.4
2017-Sep-02 12:59N 69°15' E 015°28'510.2
2017-Sep-02 12:30N 69°11' E 015°18'510.3
2017-Sep-02 12:00N 69°07' E 015°08'510.1
2017-Sep-02 11:30N 69°04' E 014°58'510.0
2017-Sep-02 11:00N 68°60' E 014°49'510.0
2017-Sep-02 10:30N 68°56' E 014°39'510.2
2017-Sep-02 10:00N 68°52' E 014°30'510.4
2017-Sep-02 09:30N 68°49' E 014°20'510.4
2017-Sep-02 09:00N 68°45' E 014°10'5 9.9
2017-Sep-02 08:30N 68°41' E 014°01'  
2017-Aug-30 09:22N 59°03' E 004°53'3 9.4
2017-Aug-30 09:00N 59°00' E 004°56'510.2
2017-Aug-30 08:30N 58°56' E 005°01'510.3
2017-Aug-30 08:01N 58°51' E 005°05'510.3
2017-Aug-30 07:31N 58°47' E 005°10'510.1
2017-Aug-30 07:01N 58°42' E 005°15'5 9.8
2017-Aug-30 06:31N 58°38' E 005°19'5 9.7
2017-Aug-30 06:00N 58°34' E 005°24'5 9.7
2017-Aug-30 05:30N 58°29' E 005°29'5 9.4
2017-Aug-30 05:00N 58°25' E 005°33'5 9.4
2017-Aug-30 04:30N 58°21' E 005°37'5 9.7
2017-Aug-30 04:00N 58°19' E 005°45'5 9.9
2017-Aug-30 03:30N 58°16' E 005°52'510.0
2017-Aug-30 03:00N 58°13' E 006°00'510.0
2017-Aug-30 02:30N 58°10' E 006°08'5 9.9
2017-Aug-30 01:59N 58°07' E 006°16'5 9.6
2017-Aug-30 01:30N 58°05' E 006°24'4 9.0
2017-Aug-30 01:01N 58°03' E 006°31'4 8.9
2017-Aug-30 00:30N 58°01' E 006°39'4 9.0
2017-Aug-30 00:00N 57°59' E 006°47'5 9.0
2017-Aug-29 23:30N 57°57' E 006°54'4 9.0
2017-Aug-29 23:01N 57°56' E 007°02'5 9.1
2017-Aug-29 22:30N 57°55' E 007°11'5 9.3
2017-Aug-29 22:00N 57°55' E 007°19'5 9.0
2017-Aug-29 21:30N 57°54' E 007°28'4 8.8
2017-Aug-29 21:00N 57°53' E 007°36'4 8.7
2017-Aug-29 20:30N 57°53' E 007°44'5 9.6
2017-Aug-29 20:00N 57°53' E 007°53'5 9.6
2017-Aug-29 19:30N 57°53' E 008°02'5 9.6
2017-Aug-29 19:00N 57°52' E 008°11'5 9.6
2017-Aug-29 18:30N 57°52' E 008°20'63 8.6
2017-Aug-29 11:10N 57°49' E 010°19'1 8.5
2017-Aug-29 10:59N 57°49' E 010°22'4 8.5
2017-Aug-29 10:30N 57°49' E 010°30'5 8.8
2017-Aug-29 10:00N 57°49' E 010°38'4 8.7
2017-Aug-29 09:30N 57°48' E 010°46'4 8.7
2017-Aug-29 09:00N 57°45' E 010°52'5 8.9
2017-Aug-29 08:30N 57°42' E 010°59'4 9.1
2017-Aug-29 08:00N 57°39' E 011°05'5 9.0
2017-Aug-29 07:29N 57°35' E 011°11'4 9.2
2017-Aug-29 07:00N 57°33' E 011°17'5 9.2
2017-Aug-29 06:29N 57°29' E 011°24'4 9.2
2017-Aug-29 06:00N 57°26' E 011°28'5 9.9
2017-Aug-29 05:28N 57°20' E 011°31'74 9.2
2017-Aug-28 21:23N 56°12' E 012°22'410.4
2017-Aug-28 21:01N 56°09' E 012°27'611.3
2017-Aug-28 20:31N 56°06' E 012°35'510.3
2017-Aug-28 20:01N 56°02' E 012°41'510.1
2017-Aug-28 19:31N 55°57' E 012°43'510.0
2017-Aug-28 19:00N 55°52' E 012°45'5 9.7
2017-Aug-28 18:31N 55°47' E 012°48'510.0
2017-Aug-28 18:01N 55°43' E 012°52'5 9.4
2017-Aug-28 17:31N 55°39' E 012°56'510.1
2017-Aug-28 17:01N 55°35' E 012°51'510.0
2017-Aug-28 16:30N 55°31' E 012°45'5 9.5
2017-Aug-28 16:00N 55°27' E 012°43'5 9.3
2017-Aug-28 15:30N 55°22' E 012°42'4 8.0
2017-Aug-28 15:01N 55°18' E 012°44'5 9.4
2017-Aug-28 14:30N 55°16' E 012°51'40 9.3
2017-Aug-28 10:10N 55°01' E 013°57'2 9.6
2017-Aug-28 09:59N 55°00' E 013°59'5 9.5
2017-Aug-28 09:30N 54°59' E 014°07'5 9.5
2017-Aug-28 09:00N 54°59' E 014°15'5 9.5
2017-Aug-28 08:31N 54°58' E 014°23'5 9.6
2017-Aug-28 08:01N 54°57' E 014°32'5 9.6
2017-Aug-28 07:30N 54°57' E 014°40'5 9.6
2017-Aug-28 07:01N 54°56' E 014°48'5 9.6
2017-Aug-28 06:31N 54°56' E 014°57'118 9.4
2017-Aug-27 17:56N 54°53' E 018°21'4 9.3
2017-Aug-27 17:30N 54°52' E 018°28'5 9.5
2017-Aug-27 17:00N 54°51' E 018°36'5 9.4
2017-Aug-27 16:31N 54°48' E 018°42'5 9.4
2017-Aug-27 16:01N 54°45' E 018°48'5 9.4
2017-Aug-27 15:30N 54°42' E 018°54'4 7.6
2017-Aug-27 15:00N 54°38' E 018°55'5 9.4
2017-Aug-27 14:31N 54°34' E 018°51'4 8.6
2017-Aug-27 14:01N 54°32' E 018°45'4 8.3
2017-Aug-27 13:31N 54°32' E 018°37'3 6.7
2017-Aug-27 13:01N 54°32' E 018°32'0 0.0
2017-Aug-27 12:31N 54°32' E 018°32'0 0.0
2017-Aug-27 12:01N 54°32' E 018°32'0 0.0
2017-Aug-27 11:31N 54°32' E 018°32'0 0.0
2017-Aug-27 11:01N 54°32' E 018°32'0 0.0
2017-Aug-27 10:30N 54°32' E 018°32'0 0.0
2017-Aug-27 10:01N 54°32' E 018°32'0 0.0
2017-Aug-27 09:30N 54°32' E 018°32'0 0.0
2017-Aug-27 09:01N 54°32' E 018°32'0 0.0
2017-Aug-27 08:31N 54°32' E 018°32'0 0.0
2017-Aug-27 08:00N 54°32' E 018°32'0 0.0
2017-Aug-27 07:31N 54°32' E 018°32'0 0.1
2017-Aug-27 07:00N 54°32' E 018°32'1 1.7
2017-Aug-27 06:31N 54°32' E 018°33'1 1.3
2017-Aug-27 06:00N 54°31' E 018°33'0 0.0
2017-Aug-27 05:31N 54°31' E 018°33'0 0.0
2017-Aug-27 05:01N 54°31' E 018°33'0 0.1
2017-Aug-27 04:31N 54°32' E 018°33'0 0.1
2017-Aug-27 04:01N 54°31' E 018°33'0 0.9
2017-Aug-27 03:31N 54°32' E 018°34'2 4.1
2017-Aug-27 03:01N 54°32' E 018°37'2 3.6
2017-Aug-27 02:31N 54°32' E 018°40'2 4.4
2017-Aug-27 02:01N 54°32' E 018°44'2 4.5
2017-Aug-27 01:31N 54°33' E 018°48'2 3.4
2017-Aug-27 01:01N 54°34' E 018°50'2 3.3
2017-Aug-27 00:30N 54°35' E 018°52'2 3.8
2017-Aug-27 00:00N 54°37' E 018°54'2 4.3
2017-Aug-26 23:31N 54°38' E 018°55'2 4.1
2017-Aug-26 23:01N 54°40' E 018°56'2 3.9
2017-Aug-26 22:31N 54°42' E 018°57'2 3.7
2017-Aug-26 22:01N 54°44' E 018°57'2 4.2
2017-Aug-26 21:30N 54°46' E 018°57'2 4.3
2017-Aug-26 21:00N 54°48' E 018°57'3 4.1
2017-Aug-26 20:22N 54°51' E 018°57'2 4.1
2017-Aug-26 19:53N 54°53' E 018°57'5 3.8
2017-Aug-26 18:41N 54°58' E 018°57'1 3.9
2017-Aug-26 18:30N 54°58' E 018°57'  
Track history (hours):
 
Tides and Currents Weather Stations Pressure Air Temp Water Temp Dewpoint Dewpoint Depression Visibility Wind Speed Wind Dir Waves Ship Positions

Serval

Last reported at 2017-Sep-04 07:56 UTC. Time now 2017-Sep-22 17:03 UTC.
Position N 71°06' E 030°15'.
Warning: this ship's position is 18 days out of date.

Length 30 m; draft 5 m.

Type: . MMSI: 377103000.

Date/timePositionNaut miles runAvg speedWind from/ knotsBaromVisibWave heightAir tempDewpointWater temp
2017-Sep-04 07:56N 71°06' E 030°15'4 9.1
2017-Sep-04 07:31N 71°07' E 030°03'5 9.1
2017-Sep-04 07:01N 71°07' E 029°49'5 9.2
2017-Sep-04 06:30N 71°08' E 029°35'5 9.2
2017-Sep-04 05:59N 71°08' E 029°21'4 9.0
2017-Sep-04 05:31N 71°09' E 029°07'5 9.0
2017-Sep-04 05:00N 71°09' E 028°53'5 9.1
2017-Sep-04 04:30N 71°09' E 028°39'4 9.2
2017-Sep-04 04:01N 71°09' E 028°25'5 9.2
2017-Sep-04 03:30N 71°10' E 028°11'5 9.2
2017-Sep-04 03:00N 71°11' E 027°57'5 9.8
2017-Sep-04 02:30N 71°12' E 027°42'510.0
2017-Sep-04 02:01N 71°12' E 027°27'5 9.8
2017-Sep-04 01:30N 71°12' E 027°11'4 9.0
2017-Sep-04 01:00N 71°13' E 026°57'4 8.5
2017-Sep-04 00:30N 71°13' E 026°44'4 8.2
2017-Sep-04 00:00N 71°12' E 026°31'4 8.8
2017-Sep-03 23:30N 71°12' E 026°18'5 9.3
2017-Sep-03 23:00N 71°13' E 026°04'5 9.4
2017-Sep-03 22:30N 71°13' E 025°49'5 8.9
2017-Sep-03 22:00N 71°13' E 025°35'4 8.4
2017-Sep-03 21:30N 71°12' E 025°22'4 8.6
2017-Sep-03 21:00N 71°11' E 025°09'4 8.7
2017-Sep-03 20:30N 71°10' E 024°56'4 8.7
2017-Sep-03 20:00N 71°09' E 024°43'4 8.0
2017-Sep-03 19:30N 71°06' E 024°34'4 8.4
2017-Sep-03 19:00N 71°02' E 024°28'4 8.6
2017-Sep-03 18:30N 70°58' E 024°23'4 8.3
2017-Sep-03 18:00N 70°55' E 024°16'4 8.2
2017-Sep-03 17:30N 70°52' E 024°06'4 8.4
2017-Sep-03 17:00N 70°50' E 023°56'4 8.6
2017-Sep-03 16:31N 70°47' E 023°46'4 8.6
2017-Sep-03 16:01N 70°44' E 023°37'4 7.7
2017-Sep-03 15:30N 70°40' E 023°36'1 2.9
2017-Sep-03 15:00N 70°40' E 023°40'0 0.0
2017-Sep-03 14:01N 70°40' E 023°40'0 0.0
2017-Sep-03 13:30N 70°40' E 023°40'0 0.0
2017-Sep-03 13:00N 70°40' E 023°40'0 0.0
2017-Sep-03 12:31N 70°40' E 023°40'0 0.0
2017-Sep-03 12:00N 70°40' E 023°40'0 0.0
2017-Sep-03 11:30N 70°40' E 023°40'1 1.5
2017-Sep-03 11:00N 70°40' E 023°38'4 7.8
2017-Sep-03 10:30N 70°44' E 023°33'4 8.5
2017-Sep-03 09:59N 70°48' E 023°32'4 8.6
2017-Sep-03 09:30N 70°52' E 023°25'4 8.7
2017-Sep-03 09:01N 70°53' E 023°13'5 9.1
2017-Sep-03 08:30N 70°53' E 022°59'4 8.8
2017-Sep-03 08:00N 70°53' E 022°46'5 9.2
2017-Sep-03 07:30N 70°51' E 022°33'4 9.2
2017-Sep-03 07:01N 70°49' E 022°20'5 9.3
2017-Sep-03 06:31N 70°47' E 022°07'5 9.4
2017-Sep-03 06:00N 70°46' E 021°53'5 9.2
2017-Sep-03 05:30N 70°44' E 021°41'5 9.3
2017-Sep-03 05:00N 70°42' E 021°28'5 9.2
2017-Sep-03 04:30N 70°40' E 021°15'5 9.3
2017-Sep-03 04:01N 70°38' E 021°02'5 9.2
2017-Sep-03 03:31N 70°36' E 020°50'4 8.8
2017-Sep-03 03:00N 70°34' E 020°38'4 8.7
2017-Sep-03 02:30N 70°33' E 020°25'5 9.4
2017-Sep-03 02:00N 70°31' E 020°13'5 9.4
2017-Sep-03 01:30N 70°29' E 019°59'5 9.8
2017-Sep-03 01:00N 70°27' E 019°46'5 9.8
2017-Sep-03 00:30N 70°25' E 019°33'5 9.9
2017-Sep-03 00:00N 70°23' E 019°19'5 9.8
2017-Sep-02 23:31N 70°21' E 019°06'5 9.8
2017-Sep-02 23:00N 70°19' E 018°52'510.0
2017-Sep-02 22:31N 70°17' E 018°39'5 9.9
2017-Sep-02 22:00N 70°14' E 018°27'5 9.8
2017-Sep-02 21:30N 70°11' E 018°17'5 9.7
2017-Sep-02 21:00N 70°08' E 018°06'510.0
2017-Sep-02 20:31N 70°04' E 017°55'510.2
2017-Sep-02 20:00N 70°01' E 017°45'5 9.6
2017-Sep-02 19:30N 69°58' E 017°34'5 9.5
2017-Sep-02 19:00N 69°54' E 017°24'5 9.4
2017-Sep-02 18:31N 69°51' E 017°14'5 9.8
2017-Sep-02 18:00N 69°48' E 017°04'5 9.6
2017-Sep-02 17:31N 69°44' E 016°53'5 9.3
2017-Sep-02 17:00N 69°41' E 016°44'5 9.1
2017-Sep-02 16:30N 69°38' E 016°34'4 9.0
2017-Sep-02 16:00N 69°35' E 016°25'4 8.9
2017-Sep-02 15:30N 69°32' E 016°15'5 9.0
2017-Sep-02 15:00N 69°29' E 016°06'5 9.4
2017-Sep-02 14:30N 69°26' E 015°56'5 9.7
2017-Sep-02 14:00N 69°22' E 015°47'5 9.7
2017-Sep-02 13:30N 69°19' E 015°37'510.4
2017-Sep-02 12:59N 69°15' E 015°28'510.2
2017-Sep-02 12:30N 69°11' E 015°18'510.3
2017-Sep-02 12:00N 69°07' E 015°08'510.1
2017-Sep-02 11:30N 69°04' E 014°58'510.0
2017-Sep-02 11:00N 68°60' E 014°49'510.0
2017-Sep-02 10:30N 68°56' E 014°39'510.2
2017-Sep-02 10:00N 68°52' E 014°30'510.4
2017-Sep-02 09:30N 68°49' E 014°20'510.4
2017-Sep-02 09:00N 68°45' E 014°10'5 9.9
2017-Sep-02 08:30N 68°41' E 014°01'  
2017-Aug-30 09:22N 59°03' E 004°53'3 9.4
2017-Aug-30 09:00N 59°00' E 004°56'510.2
2017-Aug-30 08:30N 58°56' E 005°01'510.3
2017-Aug-30 08:01N 58°51' E 005°05'510.3
2017-Aug-30 07:31N 58°47' E 005°10'510.1
2017-Aug-30 07:01N 58°42' E 005°15'5 9.8
2017-Aug-30 06:31N 58°38' E 005°19'5 9.7
2017-Aug-30 06:00N 58°34' E 005°24'5 9.7
2017-Aug-30 05:30N 58°29' E 005°29'5 9.4
2017-Aug-30 05:00N 58°25' E 005°33'5 9.4
2017-Aug-30 04:30N 58°21' E 005°37'5 9.7
2017-Aug-30 04:00N 58°19' E 005°45'5 9.9
2017-Aug-30 03:30N 58°16' E 005°52'510.0
2017-Aug-30 03:00N 58°13' E 006°00'510.0
2017-Aug-30 02:30N 58°10' E 006°08'5 9.9
2017-Aug-30 01:59N 58°07' E 006°16'5 9.6
2017-Aug-30 01:30N 58°05' E 006°24'4 9.0
2017-Aug-30 01:01N 58°03' E 006°31'4 8.9
2017-Aug-30 00:30N 58°01' E 006°39'4 9.0
2017-Aug-30 00:00N 57°59' E 006°47'5 9.0
2017-Aug-29 23:30N 57°57' E 006°54'4 9.0
2017-Aug-29 23:01N 57°56' E 007°02'5 9.1
2017-Aug-29 22:30N 57°55' E 007°11'5 9.3
2017-Aug-29 22:00N 57°55' E 007°19'5 9.0
2017-Aug-29 21:30N 57°54' E 007°28'4 8.8
2017-Aug-29 21:00N 57°53' E 007°36'4 8.7
2017-Aug-29 20:30N 57°53' E 007°44'5 9.6
2017-Aug-29 20:00N 57°53' E 007°53'5 9.6
2017-Aug-29 19:30N 57°53' E 008°02'5 9.6
2017-Aug-29 19:00N 57°52' E 008°11'5 9.6
2017-Aug-29 18:30N 57°52' E 008°20'63 8.6
2017-Aug-29 11:10N 57°49' E 010°19'1 8.5
2017-Aug-29 10:59N 57°49' E 010°22'4 8.5
2017-Aug-29 10:30N 57°49' E 010°30'5 8.8
2017-Aug-29 10:00N 57°49' E 010°38'4 8.7
2017-Aug-29 09:30N 57°48' E 010°46'4 8.7
2017-Aug-29 09:00N 57°45' E 010°52'5 8.9
2017-Aug-29 08:30N 57°42' E 010°59'4 9.1
2017-Aug-29 08:00N 57°39' E 011°05'5 9.0
2017-Aug-29 07:29N 57°35' E 011°11'4 9.2
2017-Aug-29 07:00N 57°33' E 011°17'5 9.2
2017-Aug-29 06:29N 57°29' E 011°24'4 9.2
2017-Aug-29 06:00N 57°26' E 011°28'5 9.9
2017-Aug-29 05:28N 57°20' E 011°31'74 9.2
2017-Aug-28 21:23N 56°12' E 012°22'410.4
2017-Aug-28 21:01N 56°09' E 012°27'611.3
2017-Aug-28 20:31N 56°06' E 012°35'510.3
2017-Aug-28 20:01N 56°02' E 012°41'510.1
2017-Aug-28 19:31N 55°57' E 012°43'510.0
2017-Aug-28 19:00N 55°52' E 012°45'5 9.7
2017-Aug-28 18:31N 55°47' E 012°48'510.0
2017-Aug-28 18:01N 55°43' E 012°52'5 9.4
2017-Aug-28 17:31N 55°39' E 012°56'510.1
2017-Aug-28 17:01N 55°35' E 012°51'510.0
2017-Aug-28 16:30N 55°31' E 012°45'5 9.5
2017-Aug-28 16:00N 55°27' E 012°43'5 9.3
2017-Aug-28 15:30N 55°22' E 012°42'4 8.0
2017-Aug-28 15:01N 55°18' E 012°44'5 9.4
2017-Aug-28 14:30N 55°16' E 012°51'40 9.3
2017-Aug-28 10:10N 55°01' E 013°57'2 9.6
2017-Aug-28 09:59N 55°00' E 013°59'5 9.5
2017-Aug-28 09:30N 54°59' E 014°07'5 9.5
2017-Aug-28 09:00N 54°59' E 014°15'5 9.5
2017-Aug-28 08:31N 54°58' E 014°23'5 9.6
2017-Aug-28 08:01N 54°57' E 014°32'5 9.6
2017-Aug-28 07:30N 54°57' E 014°40'5 9.6
2017-Aug-28 07:01N 54°56' E 014°48'5 9.6
2017-Aug-28 06:31N 54°56' E 014°57'118 9.4
2017-Aug-27 17:56N 54°53' E 018°21'4 9.3
2017-Aug-27 17:30N 54°52' E 018°28'5 9.5
2017-Aug-27 17:00N 54°51' E 018°36'5 9.4
2017-Aug-27 16:31N 54°48' E 018°42'5 9.4
2017-Aug-27 16:01N 54°45' E 018°48'5 9.4
2017-Aug-27 15:30N 54°42' E 018°54'4 7.6
2017-Aug-27 15:00N 54°38' E 018°55'5 9.4
2017-Aug-27 14:31N 54°34' E 018°51'4 8.6
2017-Aug-27 14:01N 54°32' E 018°45'4 8.3
2017-Aug-27 13:31N 54°32' E 018°37'3 6.7
2017-Aug-27 13:01N 54°32' E 018°32'0 0.0
2017-Aug-27 12:31N 54°32' E 018°32'0 0.0
2017-Aug-27 12:01N 54°32' E 018°32'0 0.0
2017-Aug-27 11:31N 54°32' E 018°32'0 0.0
2017-Aug-27 11:01N 54°32' E 018°32'0 0.0
2017-Aug-27 10:30N 54°32' E 018°32'0 0.0
2017-Aug-27 10:01N 54°32' E 018°32'0 0.0
2017-Aug-27 09:30N 54°32' E 018°32'0 0.0
2017-Aug-27 09:01N 54°32' E 018°32'0 0.0
2017-Aug-27 08:31N 54°32' E 018°32'0 0.0
2017-Aug-27 08:00N 54°32' E 018°32'0 0.0
2017-Aug-27 07:31N 54°32' E 018°32'0 0.1
2017-Aug-27 07:00N 54°32' E 018°32'1 1.7
2017-Aug-27 06:31N 54°32' E 018°33'1 1.3
2017-Aug-27 06:00N 54°31' E 018°33'0 0.0
2017-Aug-27 05:31N 54°31' E 018°33'0 0.0
2017-Aug-27 05:01N 54°31' E 018°33'0 0.1
2017-Aug-27 04:31N 54°32' E 018°33'0 0.1
2017-Aug-27 04:01N 54°31' E 018°33'0 0.9
2017-Aug-27 03:31N 54°32' E 018°34'2 4.1
2017-Aug-27 03:01N 54°32' E 018°37'2 3.6
2017-Aug-27 02:31N 54°32' E 018°40'2 4.4
2017-Aug-27 02:01N 54°32' E 018°44'2 4.5
2017-Aug-27 01:31N 54°33' E 018°48'2 3.4
2017-Aug-27 01:01N 54°34' E 018°50'2 3.3
2017-Aug-27 00:30N 54°35' E 018°52'2 3.8
2017-Aug-27 00:00N 54°37' E 018°54'2 4.3
2017-Aug-26 23:31N 54°38' E 018°55'2 4.1
2017-Aug-26 23:01N 54°40' E 018°56'2 3.9
2017-Aug-26 22:31N 54°42' E 018°57'2 3.7
2017-Aug-26 22:01N 54°44' E 018°57'2 4.2
2017-Aug-26 21:30N 54°46' E 018°57'2 4.3
2017-Aug-26 21:00N 54°48' E 018°57'3 4.1
2017-Aug-26 20:22N 54°51' E 018°57'2 4.1
2017-Aug-26 19:53N 54°53' E 018°57'5 3.8
2017-Aug-26 18:41N 54°58' E 018°57'1 3.9
2017-Aug-26 18:30N 54°58' E 018°57'  

Dump ship's entire track history